Time;durP1;ratioP1;P1;durP2;ratioP2;P2;SDS_P1;SDS_P2;PMS_P1;PMS_P2;Temp;Humidity;BMP_temperature;BMP_pressure;BME280_temperature;BME280_humidity;BME280_pressure;Samples;Min_cycle;Max_cycle;Signal;HPM_P1;HPM_P2
2022/04/17 00:00:47;;;;;;;;;3.00;3.00;;;;;16.21;38.60;102156.00;5061795;28;45521;-70
2022/04/17 00:03:12;;;;;;;;;4.00;3.00;;;;;16.24;38.35;102164.00;5057649;28;45564;-71
2022/04/17 00:05:37;;;;;;;;;4.00;3.00;;;;;16.07;38.34;102142.09;5060064;28;45414;-71
2022/04/17 00:08:03;;;;;;;;;2.00;2.00;;;;;16.11;38.66;102146.47;5078008;28;45718;-70
2022/04/17 00:10:29;;;;;;;;;3.25;3.25;;;;;15.95;38.84;102121.84;5062580;28;45303;-71
2022/04/17 00:12:55;;;;;;;;;4.50;4.50;;;;;16.30;38.33;102184.44;5062493;28;45307;-70
2022/04/17 00:15:20;;;;;;;;;3.50;3.50;;;;;15.98;38.56;102132.53;5054479;28;45259;-70
2022/04/17 00:17:45;;;;;;;;;5.50;3.75;;;;;16.01;38.50;102136.94;5062296;28;45291;-70
2022/04/17 00:20:13;;;;;;;;;3.00;3.00;;;;;15.98;38.70;102139.72;5061621;28;45274;-70
2022/04/17 00:22:38;;;;;;;;;4.00;4.00;;;;;15.92;38.33;102144.38;5062416;28;45481;-70
2022/04/17 00:25:04;;;;;;;;;3.00;2.00;;;;;16.12;38.57;102183.22;5062299;28;45408;-70
2022/04/17 00:27:30;;;;;;;;;3.50;3.50;;;;;15.94;38.75;102141.66;5062015;28;45628;-71
2022/04/17 00:29:55;;;;;;;;;3.00;3.00;;;;;15.96;38.43;102155.94;5061959;28;45449;-70
2022/04/17 00:32:21;;;;;;;;;4.00;4.00;;;;;16.02;38.53;102171.00;5060672;28;45614;-70
2022/04/17 00:34:46;;;;;;;;;3.25;3.25;;;;;15.82;38.42;102148.31;5062369;28;45405;-70
2022/04/17 00:37:12;;;;;;;;;3.50;2.50;;;;;15.76;38.56;102137.72;5061962;28;45643;-71
2022/04/17 00:39:37;;;;;;;;;3.75;3.00;;;;;15.86;38.61;102162.56;5062019;28;45410;-70
2022/04/17 00:42:05;;;;;;;;;3.25;3.25;;;;;15.62;38.57;102126.47;5062464;28;45279;-70
2022/04/17 00:44:31;;;;;;;;;4.50;4.50;;;;;15.54;38.45;102121.34;5060623;28;45438;-70
2022/04/17 00:46:57;;;;;;;;;4.25;3.00;;;;;15.73;38.66;102153.94;5061892;28;45275;-70
2022/04/17 00:49:22;;;;;;;;;3.50;3.50;;;;;15.80;38.64;102171.69;5060785;28;45306;-70
2022/04/17 00:51:48;;;;;;;;;6.00;4.00;;;;;15.72;38.58;102157.59;5051807;28;45557;-70
2022/04/17 00:54:15;;;;;;;;;4.25;4.25;;;;;15.70;38.60;102148.66;5058639;28;45436;-70
2022/04/17 00:56:44;;;;;;;;;5.50;4.25;;;;;15.45;38.50;102111.75;5061883;28;45299;-70
2022/04/17 00:59:09;;;;;;;;;4.25;4.25;;;;;15.42;38.60;102116.31;5061620;28;46113;-70
2022/04/17 01:01:37;;;;;;;;;5.50;4.50;;;;;15.40;38.75;102121.75;5061640;28;45244;-70
2022/04/17 01:04:04;;;;;;;;;2.00;2.00;;;;;15.36;38.79;102122.78;5063016;28;45288;-70
2022/04/17 01:06:31;;;;;;;;;6.00;3.75;;;;;15.33;38.63;102113.00;5061497;28;45394;-70
2022/04/17 01:08:58;;;;;;;;;4.00;4.00;;;;;15.37;38.93;102124.56;5061473;28;45418;-70
2022/04/17 01:11:24;;;;;;;;;3.75;3.75;;;;;15.44;38.67;102136.91;5061142;28;45559;-70
2022/04/17 01:13:51;;;;;;;;;3.50;3.00;;;;;15.49;38.68;102147.53;5061398;28;45222;-70
2022/04/17 01:16:17;;;;;;;;;5.00;4.00;;;;;15.14;38.43;102095.66;5053057;28;45355;-70
2022/04/17 01:19:04;;;;;;;;;4.75;3.50;;;;;15.40;38.75;102145.97;5060427;28;45659;-70
2022/04/17 01:21:30;;;;;;;;;4.25;4.25;;;;;15.22;38.69;102108.88;5060970;28;45392;-70
2022/04/17 01:26:58;;;;;;;;;3.00;3.00;;;;;15.06;38.50;102085.13;5058901;28;45535;-70
2022/04/17 01:29:51;;;;;;;;;5.00;5.00;;;;;15.16;38.35;102105.44;5054854;28;45665;-70
2022/04/17 01:32:17;;;;;;;;;3.00;3.00;;;;;15.21;38.50;102109.81;5058889;28;45320;-70
2022/04/17 01:34:43;;;;;;;;;4.75;4.75;;;;;15.05;38.26;102085.16;5061289;28;45426;-70
2022/04/17 01:37:08;;;;;;;;;3.50;3.50;;;;;15.26;38.53;102124.00;5060605;28;45369;-70
2022/04/17 01:39:34;;;;;;;;;4.50;3.00;;;;;15.22;38.62;102114.25;5062267;28;47233;-70
2022/04/17 01:42:00;;;;;;;;;5.00;5.00;;;;;15.03;38.11;102081.66;5061302;28;45252;-70
2022/04/17 01:44:28;;;;;;;;;4.00;4.00;;;;;14.94;38.33;102089.06;5061372;28;45768;-70
2022/04/17 01:46:54;;;;;;;;;5.00;5.00;;;;;15.03;38.40;102108.53;5061012;28;45219;-71
2022/04/17 01:49:20;;;;;;;;;2.00;2.00;;;;;14.92;38.30;102088.22;5059826;28;45314;-70
2022/04/17 01:51:48;;;;;;;;;4.25;3.00;;;;;15.00;38.29;102110.41;5049920;28;45244;-70
2022/04/17 01:54:19;;;;;;;;;5.00;4.25;;;;;14.78;38.06;102077.88;5073261;28;45389;-70
2022/04/17 01:56:48;;;;;;;;;3.25;3.25;;;;;14.86;38.42;102101.84;5060948;28;45556;-70
2022/04/17 01:59:14;;;;;;;;;4.75;4.00;;;;;14.85;38.21;102089.34;5060524;28;45375;-70
2022/04/17 02:01:40;;;;;;;;;3.25;3.25;;;;;15.00;38.53;102115.78;5060647;28;45605;-70
2022/04/17 02:04:07;;;;;;;;;4.75;4.75;;;;;14.93;38.25;102091.78;5061088;28;45346;-70
2022/04/17 02:06:33;;;;;;;;;3.00;3.00;;;;;14.72;38.54;102053.88;5060892;28;45561;-70
2022/04/17 02:09:00;;;;;;;;;3.00;2.75;;;;;14.94;38.21;102094.44;5060256;28;45359;-70
2022/04/17 02:11:27;;;;;;;;;4.00;4.00;;;;;15.00;38.21;102106.81;5060745;28;45501;-70
2022/04/17 02:13:53;;;;;;;;;5.75;5.00;;;;;14.92;38.24;102090.91;5060853;28;45482;-70
2022/04/17 02:16:22;;;;;;;;;4.00;4.00;;;;;14.92;37.76;102109.75;5052716;28;45432;-70
2022/04/17 02:18:49;;;;;;;;;5.00;4.00;;;;;14.90;37.70;102102.63;5059451;28;45287;-70
2022/04/17 02:21:16;;;;;;;;;4.25;4.25;;;;;14.77;37.63;102076.09;5051996;28;45337;-70
2022/04/17 02:23:44;;;;;;;;;5.75;3.00;;;;;14.68;37.53;102068.28;5046400;28;45272;-70
2022/04/17 02:26:11;;;;;;;;;5.00;5.00;;;;;14.92;37.61;102112.44;5060197;28;45335;-70
2022/04/17 02:28:38;;;;;;;;;5.25;4.00;;;;;14.84;37.85;102100.13;5060087;28;46756;-70
2022/04/17 02:31:04;;;;;;;;;3.75;3.75;;;;;14.73;38.17;102068.16;5060267;28;45495;-70
2022/04/17 02:33:30;;;;;;;;;3.25;3.25;;;;;14.70;37.91;102058.41;5060462;28;45351;-70
2022/04/17 02:35:56;;;;;;;;;4.50;4.25;;;;;14.93;38.08;102098.03;5060278;28;45323;-70
2022/04/17 02:38:22;;;;;;;;;5.25;4.25;;;;;14.63;37.73;102044.25;5059390;28;45537;-70
2022/04/17 02:40:48;;;;;;;;;4.75;4.50;;;;;14.75;37.31;102063.63;5060347;28;45509;-70
2022/04/17 02:43:13;;;;;;;;;4.50;4.50;;;;;14.70;37.57;102061.09;5059088;28;45463;-70
2022/04/17 02:45:39;;;;;;;;;5.00;3.25;;;;;14.64;37.48;102048.69;5059726;28;45432;-70
2022/04/17 02:48:04;;;;;;;;;6.00;5.00;;;;;14.73;37.55;102052.91;5058460;28;47194;-71
2022/04/17 02:50:30;;;;;;;;;4.00;4.00;;;;;14.87;37.52;102076.72;5058159;28;45529;-70
2022/04/17 02:52:56;;;;;;;;;6.00;5.00;;;;;14.84;37.25;102079.50;5046521;28;45449;-70
2022/04/17 02:55:21;;;;;;;;;3.75;3.75;;;;;14.86;37.41;102088.41;5060175;28;45306;-70
2022/04/17 02:57:48;;;;;;;;;3.00;3.00;;;;;14.37;37.17;101998.41;5059314;28;45894;-70
2022/04/17 03:00:14;;;;;;;;;4.00;4.00;;;;;14.74;37.75;102054.69;5059991;28;45318;-70
2022/04/17 03:05:36;;;;;;;;;4.75;4.75;;;;;14.89;37.24;102082.06;5059981;28;45429;-70
2022/04/17 03:08:08;;;;;;;;;4.50;4.00;;;;;14.51;37.37;102017.69;5049608;28;47616;-70
2022/04/17 03:10:37;;;;;;;;;4.00;4.00;;;;;14.62;37.33;102049.69;5059701;28;45295;-70
2022/04/17 03:13:04;;;;;;;;;5.25;5.25;;;;;14.55;37.51;102042.66;5060106;28;45308;-70
2022/04/17 03:15:30;;;;;;;;;5.00;4.25;;;;;14.40;37.25;102031.44;5059384;28;45442;-70
2022/04/17 03:17:55;;;;;;;;;5.75;5.75;;;;;14.61;37.61;102061.34;5059133;28;45407;-70
2022/04/17 03:20:21;;;;;;;;;5.75;3.00;;;;;14.25;37.38;102019.31;5057709;28;45426;-70
2022/04/17 03:22:47;;;;;;;;;4.25;4.25;;;;;14.46;38.04;102051.88;5059723;28;45457;-70
2022/04/17 03:25:12;;;;;;;;;5.00;5.00;;;;;14.32;37.74;102011.97;5057543;28;45492;-70
2022/04/17 03:27:37;;;;;;;;;3.75;3.75;;;;;14.43;38.09;102031.38;5059441;28;46900;-70
2022/04/17 03:30:04;;;;;;;;;4.50;3.50;;;;;14.30;37.83;102004.84;5059459;28;45378;-70
2022/04/17 03:32:31;;;;;;;;;3.75;3.75;;;;;14.32;37.67;102028.09;5059268;28;45228;-70
2022/04/17 03:34:57;;;;;;;;;4.75;3.00;;;;;14.34;38.02;102028.91;5063923;28;45751;-70
2022/04/17 03:37:23;;;;;;;;;4.25;4.25;;;;;14.37;37.85;102031.53;5065658;28;46259;-70
2022/04/17 03:39:48;;;;;;;;;6.50;5.00;;;;;14.31;37.76;102015.56;5052896;28;45441;-70
2022/04/17 03:42:15;;;;;;;;;5.00;5.00;;;;;14.58;37.84;102061.38;5066404;28;45786;-70
2022/04/17 03:44:41;;;;;;;;;4.75;4.25;;;;;14.35;37.55;102019.94;5065931;28;45418;-70
2022/04/17 03:47:06;;;;;;;;;5.75;4.50;;;;;14.26;37.42;102015.69;5065587;28;45388;-70
2022/04/17 03:49:32;;;;;;;;;4.25;4.00;;;;;14.32;37.74;102046.88;5066267;28;45418;-70
2022/04/17 03:51:57;;;;;;;;;4.00;4.00;;;;;14.35;37.51;102053.97;5054862;28;45430;-70
2022/04/17 03:54:23;;;;;;;;;6.75;5.00;;;;;14.01;37.52;102015.47;5063764;28;45281;-70
2022/04/17 03:56:48;;;;;;;;;4.00;4.00;;;;;14.23;37.22;102052.50;5065650;28;46386;-70
2022/04/17 03:59:14;;;;;;;;;5.00;5.00;;;;;14.20;37.55;102057.94;5064427;28;45414;-70
2022/04/17 04:01:40;;;;;;;;;4.25;4.00;;;;;14.05;37.90;102041.31;5065921;28;45210;-70
2022/04/17 04:04:08;;;;;;;;;4.25;3.50;;;;;14.05;37.90;102040.47;5065177;28;45289;-70
2022/04/17 04:06:34;;;;;;;;;5.25;5.25;;;;;14.17;37.60;102055.34;5065154;28;45503;-70
2022/04/17 04:09:00;;;;;;;;;5.00;3.50;;;;;14.04;37.77;102031.50;5097898;27;45374;-70
2022/04/17 04:11:26;;;;;;;;;3.50;3.50;;;;;14.14;37.49;102047.38;5065263;28;45425;-69
2022/04/17 04:13:52;;;;;;;;;5.00;4.25;;;;;14.04;37.25;102044.91;5053902;28;45603;-70
2022/04/17 04:16:18;;;;;;;;;4.00;3.00;;;;;13.95;37.85;102039.81;5060526;28;45393;-69
2022/04/17 04:18:43;;;;;;;;;4.00;4.00;;;;;13.78;37.51;102004.44;5065415;28;45232;-69
2022/04/17 04:21:08;;;;;;;;;4.25;3.50;;;;;13.64;37.49;101983.34;5060024;28;45547;-69
2022/04/17 04:23:35;;;;;;;;;4.00;4.00;;;;;13.92;37.49;102050.63;5064084;28;45586;-70
2022/04/17 04:26:02;;;;;;;;;3.50;3.50;;;;;13.66;37.08;102009.19;5077797;27;47943;-69
2022/04/17 04:28:34;;;;;;;;;6.00;5.00;;;;;13.52;37.38;101995.28;5065211;28;45346;-69
2022/04/17 04:31:14;;;;;;;;;3.25;3.00;;;;;13.49;37.54;101998.03;5065508;28;45292;-70
2022/04/17 04:33:42;;;;;;;;;4.75;4.50;;;;;13.40;37.31;101984.81;5065269;28;45520;-70
2022/04/17 04:36:12;;;;;;;;;3.00;3.00;;;;;13.39;37.68;102000.03;5064080;27;45629;-70
2022/04/17 04:38:39;;;;;;;;;3.75;3.75;;;;;13.67;37.71;102039.63;5064062;28;45366;-70
2022/04/17 04:41:04;;;;;;;;;5.00;5.00;;;;;13.62;37.66;102038.84;5065444;28;45485;-70
2022/04/17 04:43:30;;;;;;;;;3.25;3.25;;;;;13.35;37.61;102017.13;5065266;28;45458;-70
2022/04/17 04:46:09;;;;;;;;;5.25;4.00;;;;;13.18;37.77;101985.34;5062491;28;45471;-70
2022/04/17 04:51:26;;;;;;;;;6.25;4.00;;;;;13.20;37.91;102010.28;5052090;28;45470;-70
2022/04/17 04:53:53;;;;;;;;;3.00;3.00;;;;;13.17;37.62;102013.03;5055257;28;45576;-70
2022/04/17 04:56:19;;;;;;;;;3.50;3.50;;;;;13.23;37.60;102031.69;5060243;28;48019;-70
2022/04/17 04:58:45;;;;;;;;;5.00;4.25;;;;;13.28;37.73;102048.53;5066635;28;45730;-70
2022/04/17 05:01:11;;;;;;;;;3.00;3.00;;;;;13.03;38.07;102028.53;5060470;28;45386;-71
2022/04/17 05:03:37;;;;;;;;;4.00;4.00;;;;;12.94;37.78;102003.72;5061666;28;45315;-71
2022/04/17 05:06:03;;;;;;;;;4.00;4.00;;;;;13.24;37.82;102046.84;5061577;28;45463;-70
2022/04/17 05:08:28;;;;;;;;;4.00;3.75;;;;;13.21;38.05;102046.03;5066412;28;45450;-70
2022/04/17 05:10:54;;;;;;;;;5.00;4.00;;;;;12.93;37.87;101993.03;5061947;28;45425;-70
2022/04/17 05:13:20;;;;;;;;;3.25;3.25;;;;;13.21;37.53;102054.94;5061736;28;45366;-70
2022/04/17 05:15:46;;;;;;;;;7.25;5.50;;;;;12.90;37.62;102009.19;5054956;28;46610;-70
2022/04/17 05:18:11;;;;;;;;;4.00;3.00;;;;;13.02;37.54;102041.06;5061172;28;45376;-70
2022/04/17 05:20:36;;;;;;;;;4.00;4.00;;;;;12.85;37.56;102022.69;5061050;28;45398;-70
2022/04/17 05:23:21;;;;;;;;;9.50;6.00;;;;;13.00;37.83;102075.06;5054759;28;45437;-71
2022/04/17 05:25:49;;;;;;;;;3.75;3.25;;;;;12.92;37.43;102067.19;5061011;28;45400;-70
2022/04/17 05:28:15;;;;;;;;;3.00;3.00;;;;;12.76;37.57;102057.69;5061141;28;45458;-70
2022/04/17 05:30:42;;;;;;;;;5.00;4.00;;;;;12.79;37.70;102065.69;5069901;28;45318;-70
2022/04/17 05:33:08;;;;;;;;;5.00;5.00;;;;;12.69;37.80;102069.47;5061285;28;45267;-70
2022/04/17 05:35:34;;;;;;;;;4.00;4.00;;;;;12.45;37.60;102034.22;5060874;28;46672;-70
2022/04/17 05:37:59;;;;;;;;;3.75;3.75;;;;;12.27;38.00;102013.16;5061039;28;45308;-70
2022/04/17 05:40:25;;;;;;;;;3.50;3.00;;;;;12.55;38.49;102064.38;5060346;28;45575;-70
2022/04/17 05:42:50;;;;;;;;;3.25;3.25;;;;;12.59;37.97;102060.72;5061241;28;45373;-70
2022/04/17 05:45:16;;;;;;;;;3.00;3.00;;;;;12.62;38.11;102065.16;5060521;28;46434;-70
2022/04/17 05:47:42;;;;;;;;;6.25;4.50;;;;;12.67;37.97;102069.50;5060891;28;45497;-70
2022/04/17 05:50:08;;;;;;;;;4.00;3.75;;;;;12.71;38.11;102073.00;5057187;28;45507;-70
2022/04/17 05:52:34;;;;;;;;;3.00;3.00;;;;;12.75;38.54;102072.03;5058631;28;46357;-70
2022/04/17 05:55:00;;;;;;;;;4.50;3.25;;;;;12.77;38.51;102064.84;5060770;28;45593;-70
2022/04/17 05:57:25;;;;;;;;;3.75;3.75;;;;;12.77;38.75;102065.72;5060387;28;45297;-70
2022/04/17 05:59:50;;;;;;;;;4.25;4.25;;;;;12.50;37.95;102013.59;5060917;28;45210;-70
2022/04/17 06:02:18;;;;;;;;;4.00;4.00;;;;;12.64;37.82;102049.91;5060882;28;45304;-70
2022/04/17 06:04:43;;;;;;;;;4.50;4.00;;;;;12.53;37.73;102056.38;5060862;28;45386;-70
2022/04/17 06:07:09;;;;;;;;;4.25;4.00;;;;;12.51;37.94;102063.56;5060478;28;45414;-70
2022/04/17 06:09:35;;;;;;;;;3.50;3.50;;;;;12.57;37.85;102076.81;5074089;28;45446;-70
2022/04/17 06:12:00;;;;;;;;;3.75;3.50;;;;;12.33;38.25;102029.06;5060586;28;45399;-70
2022/04/17 06:14:26;;;;;;;;;7.00;4.50;;;;;12.45;38.40;102057.44;5056133;28;45452;-70
2022/04/17 06:16:51;;;;;;;;;6.75;5.25;;;;;12.48;37.76;102057.34;5056628;28;45270;-70
2022/04/17 06:19:17;;;;;;;;;4.50;4.00;;;;;12.63;38.04;102074.94;5055319;28;45292;-70
2022/04/17 06:21:43;;;;;;;;;4.00;4.00;;;;;12.54;37.45;102071.50;5055929;28;45383;-70
2022/04/17 06:24:08;;;;;;;;;4.25;4.25;;;;;12.55;37.93;102084.00;5060492;28;45304;-70
2022/04/17 06:26:34;;;;;;;;;6.00;6.00;;;;;12.52;37.55;102069.78;5060231;28;45188;-70
2022/04/17 06:29:03;;;;;;;;;3.50;3.50;;;;;12.06;37.61;101991.22;5060556;28;45200;-70
2022/04/17 06:31:29;;;;;;;;;4.00;3.00;;;;;12.26;37.75;102036.34;5059961;28;45493;-70
2022/04/17 06:33:55;;;;;;;;;6.50;4.75;;;;;12.21;37.79;102038.22;5060033;28;45420;-70
2022/04/17 06:36:20;;;;;;;;;4.00;3.00;;;;;12.44;38.03;102053.00;5060215;28;45436;-70
2022/04/17 06:38:46;;;;;;;;;6.00;6.00;;;;;12.54;38.46;102068.84;5060205;28;45399;-70
2022/04/17 06:41:11;;;;;;;;;4.00;4.00;;;;;12.25;38.53;102018.53;5060175;28;45263;-70
2022/04/17 06:43:37;;;;;;;;;8.00;6.00;;;;;12.46;38.22;102033.28;5059953;28;45476;-71
2022/04/17 06:46:02;;;;;;;;;5.00;5.00;;;;;12.66;38.27;102062.34;5059929;28;45660;-70
2022/04/17 06:48:28;;;;;;;;;8.00;5.75;;;;;12.51;38.27;102035.88;5060374;28;45293;-70
2022/04/17 06:50:54;;;;;;;;;6.75;6.00;;;;;12.71;37.73;102075.66;5045496;28;45245;-70
2022/04/17 06:53:20;;;;;;;;;5.50;5.50;;;;;12.40;37.78;102028.94;5066288;28;46582;-71
2022/04/17 06:55:47;;;;;;;;;4.25;4.25;;;;;12.74;38.20;102064.88;5073317;28;45627;-70
2022/04/17 06:58:14;;;;;;;;;8.25;7.00;;;;;12.81;38.19;102063.84;5059191;28;45458;-70
2022/04/17 07:01:01;;;;;;;;;7.25;6.50;;;;;12.86;38.33;102056.59;5059418;28;45545;-71
2022/04/17 07:03:27;;;;;;;;;5.00;5.00;;;;;12.90;37.94;102054.75;5059751;28;45477;-68
2022/04/17 07:05:52;;;;;;;;;5.00;5.00;;;;;12.78;38.17;102038.00;5058711;28;45457;-68
2022/04/17 07:08:18;;;;;;;;;6.25;5.75;;;;;12.84;38.08;102030.75;5058169;28;45550;-68
2022/04/17 07:10:43;;;;;;;;;11.50;7.00;;;;;13.05;38.41;102049.06;5068947;28;45681;-69
2022/04/17 07:13:14;;;;;;;;;5.75;5.75;;;;;13.05;37.70;102042.81;5041913;28;46493;-73
2022/04/17 07:15:40;;;;;;;;;8.50;7.75;;;;;12.93;38.01;102023.41;5044001;28;45516;-67
2022/04/17 07:18:05;;;;;;;;;6.75;6.00;;;;;12.76;38.08;101983.59;5057725;28;45533;-70
2022/04/17 07:20:31;;;;;;;;;8.00;6.00;;;;;13.07;38.17;102030.25;5051300;28;47080;-66
2022/04/17 07:23:00;;;;;;;;;8.75;7.25;;;;;13.06;37.80;102033.84;5070636;28;46927;-66
2022/04/17 07:25:25;;;;;;;;;5.00;5.00;;;;;13.01;38.12;102014.31;5049768;28;45522;-67
2022/04/17 07:27:51;;;;;;;;;6.50;6.50;;;;;12.94;37.97;101997.47;5051042;28;45433;-66
2022/04/17 07:30:21;;;;;;;;;7.00;7.00;;;;;12.89;38.33;101978.81;5046426;28;45356;-65
2022/04/17 07:32:49;;;;;;;;;8.25;6.50;;;;;13.06;38.67;101988.28;5052711;28;48486;-68
2022/04/17 07:35:17;;;;;;;;;7.00;7.00;;;;;13.03;38.25;101980.31;5045975;28;45269;-67
2022/04/17 07:37:50;;;;;;;;;6.00;6.00;;;;;13.34;38.10;102018.91;5058751;28;45340;-69
2022/04/17 07:40:20;;;;;;;;;6.25;5.25;;;;;13.47;38.50;102015.97;5058897;28;45473;-68
2022/04/17 07:42:49;;;;;;;;;7.00;4.50;;;;;13.46;38.26;101996.28;5050627;28;45320;-67
2022/04/17 07:45:15;;;;;;;;;5.00;5.00;;;;;13.47;37.93;101999.88;5054275;28;45490;-70
2022/04/17 07:47:42;;;;;;;;;6.00;6.00;;;;;13.46;37.91;101976.63;5053803;28;45471;-69
2022/04/17 07:50:09;;;;;;;;;5.25;5.25;;;;;13.57;37.37;101984.44;5066952;27;45562;-67
2022/04/17 07:52:35;;;;;;;;;5.00;5.00;;;;;13.74;37.85;102003.66;5051845;28;45423;-69
2022/04/17 07:55:01;;;;;;;;;5.25;5.25;;;;;13.85;37.10;102006.94;5054450;28;45642;-66
2022/04/17 07:57:27;;;;;;;;;5.00;5.00;;;;;13.71;37.08;101974.22;5048224;28;45486;-68
2022/04/17 07:59:55;;;;;;;;;9.00;7.00;;;;;13.67;37.20;101951.94;5057099;28;45305;-69
2022/04/17 08:02:22;;;;;;;;;9.75;9.00;;;;;13.76;36.89;101956.19;5058904;28;47963;-69
2022/04/17 08:04:51;;;;;;;;;7.00;7.00;;;;;13.89;37.14;101962.13;5058812;28;45703;-69
2022/04/17 08:07:19;;;;;;;;;9.50;6.50;;;;;13.96;36.71;101957.47;5058207;28;45528;-69
2022/04/17 08:09:45;;;;;;;;;6.50;5.25;;;;;13.90;36.64;101939.72;5058601;28;45463;-69
2022/04/17 08:12:11;;;;;;;;;6.75;5.25;;;;;13.98;36.32;101947.56;5058583;28;45692;-69
2022/04/17 08:14:36;;;;;;;;;6.00;6.00;;;;;14.29;36.20;101990.56;5058191;28;46648;-69
2022/04/17 08:17:02;;;;;;;;;5.75;5.75;;;;;14.16;35.84;101955.09;5056711;28;45450;-69
2022/04/17 08:19:29;;;;;;;;;6.00;5.25;;;;;14.42;36.18;101986.59;5058434;28;45311;-69
2022/04/17 08:21:55;;;;;;;;;6.00;5.00;;;;;14.50;36.03;101981.03;5058742;28;46182;-77
2022/04/17 08:24:21;;;;;;;;;5.50;4.25;;;;;14.38;35.52;101954.50;5059891;28;45778;-77
2022/04/17 08:26:46;;;;;;;;;5.25;5.25;;;;;14.38;35.86;101930.31;5062638;28;45405;-75
2022/04/17 08:29:12;;;;;;;;;5.00;5.00;;;;;14.45;34.99;101951.59;5066347;28;45888;-67
2022/04/17 08:31:37;;;;;;;;;5.50;4.00;;;;;14.34;35.08;101932.22;5060057;28;46954;-68
2022/04/17 08:34:03;;;;;;;;;6.00;5.00;;;;;14.33;35.04;101938.50;5062491;28;45366;-65
2022/04/17 08:36:28;;;;;;;;;6.00;4.50;;;;;14.63;34.79;101962.75;5065652;27;45387;-67
2022/04/17 08:38:53;;;;;;;;;3.75;3.75;;;;;14.54;34.75;101945.06;5068971;28;45419;-76
2022/04/17 08:41:21;;;;;;;;;6.25;2.75;;;;;14.72;34.81;101957.09;5059692;28;45639;-68
2022/04/17 08:43:47;;;;;;;;;3.50;3.50;;;;;14.69;34.00;101938.38;5060592;28;45436;-68
2022/04/17 08:46:12;;;;;;;;;3.00;3.00;;;;;14.86;34.14;101958.50;5061433;28;45315;-69
2022/04/17 08:48:38;;;;;;;;;4.00;4.00;;;;;14.73;34.15;101933.78;5061783;28;45570;-68
2022/04/17 08:51:07;;;;;;;;;4.00;4.00;;;;;14.79;34.29;101925.53;5059078;28;45442;-68
2022/04/17 08:53:35;;;;;;;;;3.00;3.00;;;;;15.00;34.01;101946.38;5061710;28;45354;-68
2022/04/17 08:56:01;;;;;;;;;5.25;4.00;;;;;14.85;33.92;101919.97;5061734;28;45311;-69
2022/04/17 08:58:26;;;;;;;;;4.50;3.00;;;;;14.94;34.05;101910.75;5061880;28;45304;-68
2022/04/17 09:00:52;;;;;;;;;4.00;4.00;;;;;15.04;34.29;101936.41;5060890;28;45301;-68
2022/04/17 09:03:17;;;;;;;;;4.75;3.75;;;;;15.08;33.73;101929.97;5060301;28;45310;-69
2022/04/17 09:05:43;;;;;;;;;2.00;2.00;;;;;15.07;33.41;101912.09;5061884;28;45278;-68
2022/04/17 09:08:17;;;;;;;;;4.00;3.75;;;;;15.17;33.15;101920.75;5061459;28;45553;-68
2022/04/17 09:10:57;;;;;;;;;5.75;4.50;;;;;15.25;33.23;101931.25;5057014;28;48485;-68
2022/04/17 09:13:31;;;;;;;;;3.50;3.50;;;;;15.19;32.97;101913.50;5058750;28;45328;-69
2022/04/17 09:15:57;;;;;;;;;2.00;2.00;;;;;15.13;32.87;101882.28;5058187;28;45637;-69
2022/04/17 09:18:22;;;;;;;;;3.00;3.00;;;;;15.23;32.99;101888.25;5060552;28;45406;-69
2022/04/17 09:20:48;;;;;;;;;2.75;2.75;;;;;15.37;32.74;101898.56;5060007;28;45426;-68
2022/04/17 09:23:14;;;;;;;;;4.50;4.00;;;;;15.49;32.48;101902.66;5061055;28;45395;-69
2022/04/17 09:25:45;;;;;;;;;3.75;3.75;;;;;15.41;32.34;101892.13;5060252;28;45359;-69
2022/04/17 09:28:10;;;;;;;;;3.00;2.00;;;;;15.67;32.24;101931.63;5047672;28;45436;-68
2022/04/17 09:30:40;;;;;;;;;3.50;3.50;;;;;15.45;32.50;101885.72;5061213;28;45521;-69
2022/04/17 09:33:12;;;;;;;;;2.75;2.75;;;;;15.61;31.98;101898.66;5060212;28;45409;-69
2022/04/17 09:35:38;;;;;;;;;4.50;3.25;;;;;15.61;32.15;101883.38;5061413;28;45444;-69
2022/04/17 09:38:05;;;;;;;;;4.50;3.00;;;;;15.95;32.26;101932.47;5059734;28;45622;-69
2022/04/17 09:40:31;;;;;;;;;2.25;2.25;;;;;16.00;32.00;101925.97;5061178;28;45371;-69
2022/04/17 09:43:11;;;;;;;;;3.00;3.00;;;;;15.85;32.35;101884.31;5061073;28;46495;-69
2022/04/17 09:45:57;;;;;;;;;4.50;4.50;;;;;16.16;32.29;101914.66;5056634;28;45392;-69
2022/04/17 09:48:22;;;;;;;;;4.25;4.25;;;;;15.91;32.62;101873.34;5052061;28;45437;-69
2022/04/17 09:50:47;;;;;;;;;3.75;3.75;;;;;15.95;32.49;101865.16;5057583;28;45454;-70
2022/04/17 09:53:37;;;;;;;;;4.00;3.75;;;;;16.02;32.42;101855.91;5060813;28;45481;-69
2022/04/17 09:56:04;;;;;;;;;3.50;3.50;;;;;16.12;32.06;101868.06;5042508;28;45331;-69
2022/04/17 09:58:30;;;;;;;;;4.25;4.25;;;;;16.16;31.72;101871.56;5055754;28;45467;-69
2022/04/17 10:00:58;;;;;;;;;4.00;4.00;;;;;16.25;31.63;101872.06;5059878;28;45464;-69
2022/04/17 10:03:23;;;;;;;;;4.00;4.00;;;;;16.19;32.08;101858.84;5063748;28;46324;-69
2022/04/17 10:05:49;;;;;;;;;3.00;3.00;;;;;16.46;32.11;101902.72;5076461;28;45338;-69
2022/04/17 10:08:16;;;;;;;;;3.75;3.75;;;;;16.51;32.09;101889.06;5060576;28;45296;-69
2022/04/17 10:10:41;;;;;;;;;4.00;4.00;;;;;16.56;31.84;101888.88;5060851;28;45417;-68
2022/04/17 10:13:07;;;;;;;;;3.75;3.00;;;;;16.35;32.10;101831.31;5067904;28;45342;-69
2022/04/17 10:15:34;;;;;;;;;5.00;5.00;;;;;16.63;31.91;101874.22;5060439;28;45418;-69
2022/04/17 10:18:02;;;;;;;;;4.00;3.00;;;;;16.70;31.21;101873.03;5060405;28;45468;-69
2022/04/17 10:20:27;;;;;;;;;4.75;4.75;;;;;16.52;31.62;101823.41;5060486;28;45436;-69
2022/04/17 10:22:57;;;;;;;;;5.50;4.25;;;;;16.81;31.33;101857.31;5060160;28;45390;-69
2022/04/17 10:25:23;;;;;;;;;3.25;3.25;;;;;16.91;30.58;101874.03;5051134;28;45466;-69
2022/04/17 10:27:53;;;;;;;;;5.00;4.25;;;;;16.72;30.96;101819.03;5047759;28;45563;-69
2022/04/17 10:30:36;;;;;;;;;3.25;3.25;;;;;16.85;31.31;101823.03;5059128;28;45338;-69
2022/04/17 10:33:04;;;;;;;;;4.00;4.00;;;;;17.10;31.66;101852.53;5059889;28;45431;-69
2022/04/17 10:35:35;;;;;;;;;2.00;2.00;;;;;17.16;31.08;101854.13;5060450;28;45318;-69
2022/04/17 10:38:20;;;;;;;;;4.25;4.00;;;;;17.17;30.83;101843.28;5058793;28;45422;-69
2022/04/17 10:40:59;;;;;;;;;3.75;3.00;;;;;17.18;31.18;101841.44;5060370;28;46276;-69
2022/04/17 10:43:53;;;;;;;;;0.00;0.00;;;;;17.22;31.08;101843.06;5057334;28;45608;-69
2022/04/17 10:46:21;;;;;;;;;6.50;4.25;;;;;17.00;30.95;101784.63;5046635;28;45517;-69
2022/04/17 10:48:49;;;;;;;;;4.00;4.00;;;;;17.10;30.87;101795.03;5060162;28;45432;-69
2022/04/17 10:51:20;;;;;;;;;3.75;3.75;;;;;17.32;31.02;101822.81;5059849;28;45546;-69
2022/04/17 10:53:59;;;;;;;;;4.00;4.00;;;;;17.40;30.90;101822.50;5059896;28;45620;-69
2022/04/17 10:56:27;;;;;;;;;3.00;2.75;;;;;17.40;30.71;101815.25;5059578;28;45468;-69
2022/04/17 10:58:54;;;;;;;;;4.25;3.00;;;;;17.48;30.81;101812.25;5065995;28;45360;-69
2022/04/17 11:01:41;;;;;;;;;4.75;4.75;;;;;17.57;30.74;101813.63;5059486;27;48100;-69
2022/04/17 11:04:44;;;;;;;;;4.50;4.50;;;;;17.62;30.61;101806.22;5057467;28;45507;-69
2022/04/17 11:07:10;;;;;;;;;6.00;6.00;;;;;17.66;30.30;101805.16;5046915;28;45268;-69
2022/04/17 11:09:42;;;;;;;;;8.50;7.25;;;;;17.72;30.04;101799.44;5059800;28;45228;-69
2022/04/17 11:12:10;;;;;;;;;5.00;5.00;;;;;17.73;30.28;101787.72;5059733;28;45382;-69
2022/04/17 11:14:39;;;;;;;;;6.50;5.75;;;;;17.68;29.99;101760.03;5054407;28;45367;-69
2022/04/17 11:17:08;;;;;;;;;3.50;3.50;;;;;17.90;29.93;101791.50;5059709;28;45396;-69
2022/04/17 11:19:36;;;;;;;;;5.50;5.25;;;;;17.66;29.86;101737.66;5059496;28;45287;-69
2022/04/17 11:22:04;;;;;;;;;4.50;3.50;;;;;17.59;29.66;101717.25;5058363;28;48512;-69
2022/04/17 11:24:54;;;;;;;;;2.75;2.75;;;;;18.05;29.02;101777.25;5059366;28;45401;-69
2022/04/17 11:27:31;;;;;;;;;6.50;6.50;;;;;18.13;28.96;101780.47;5044333;28;45162;-69
2022/04/17 11:30:00;;;;;;;;;3.75;3.75;;;;;17.94;29.31;101733.66;5058474;28;45544;-68
2022/04/17 11:32:46;;;;;;;;;2.00;1.75;;;;;17.86;28.98;101725.00;5059049;28;45572;-69
2022/04/17 11:35:14;;;;;;;;;7.25;6.25;;;;;18.05;28.93;101749.38;5059428;28;45560;-69